createdAt,value
2022-08-26T00:00:52.219Z,98341.50
2022-08-26T00:02:01.303Z,98340.08
2022-08-26T00:03:09.829Z,98340.08
2022-08-26T00:04:17.821Z,98340.31
2022-08-26T00:05:26.483Z,98339.85
2022-08-26T00:06:37.828Z,98342.77
2022-08-26T00:07:51.055Z,98338.66
2022-08-26T00:08:58.562Z,98343.96
2022-08-26T00:10:08.397Z,98346.63
2022-08-26T00:11:16.140Z,98351.23
2022-08-26T00:12:37.756Z,98347.98
2022-08-26T00:13:46.823Z,98345.23
2022-08-26T00:14:56.918Z,98349.88
2022-08-26T00:16:05.485Z,98348.48
2022-08-26T00:17:16.030Z,98344.38
2022-08-26T00:18:26.878Z,98347.48
2022-08-26T00:19:34.774Z,98343.16
2022-08-26T00:20:43.497Z,98343.29
2022-08-26T00:21:56.149Z,98350.58
2022-08-26T00:23:05.612Z,98347.50
2022-08-26T00:24:16.344Z,98347.20
2022-08-26T00:25:25.003Z,98349.69
2022-08-26T00:26:36.400Z,98344.29
2022-08-26T00:27:45.589Z,98345.83
2022-08-26T00:28:53.381Z,98348.33
2022-08-26T00:30:06.019Z,98347.54
2022-08-26T00:31:13.618Z,98350.20
2022-08-26T00:32:22.854Z,98355.31
2022-08-26T00:33:32.931Z,98354.76
2022-08-26T00:34:42.531Z,98354.42
2022-08-26T00:35:49.789Z,98358.56
2022-08-26T00:37:00.115Z,98356.26
2022-08-26T00:38:08.432Z,98357.88
2022-08-26T00:39:22.372Z,98367.38
2022-08-26T00:40:37.158Z,98366.27
2022-08-26T00:41:46.554Z,98371.30
2022-08-26T00:42:54.282Z,98367.17
2022-08-26T00:44:02.078Z,98371.30
2022-08-26T00:45:11.814Z,98371.82
2022-08-26T00:46:33.502Z,98376.36
2022-08-26T00:47:59.047Z,98378.00
2022-08-26T00:49:38.867Z,98380.27
2022-08-26T00:51:00.615Z,98379.50
2022-08-26T00:52:16.913Z,98381.71
2022-08-26T00:53:28.654Z,98383.86
2022-08-26T00:54:39.334Z,98382.38
2022-08-26T00:55:53.011Z,98383.77
2022-08-26T00:57:02.908Z,98384.42
2022-08-26T00:58:13.591Z,98382.95
2022-08-26T00:59:22.713Z,98377.00
2022-08-26T01:00:32.992Z,98380.43
2022-08-26T01:01:42.010Z,98387.04
2022-08-26T01:02:50.438Z,98388.73
2022-08-26T01:03:58.980Z,98390.58
2022-08-26T01:05:09.121Z,98391.16
2022-08-26T01:06:16.753Z,98390.41
2022-08-26T01:07:30.302Z,98390.66
2022-08-26T01:08:41.574Z,98386.90
2022-08-26T01:09:49.216Z,98382.39
2022-08-26T01:10:57.422Z,98382.98
2022-08-26T01:12:06.411Z,98377.92
2022-08-26T01:13:16.383Z,98381.34
2022-08-26T01:14:30.649Z,98380.76
2022-08-26T01:15:58.311Z,98376.08
2022-08-26T01:17:09.036Z,98382.55
2022-08-26T01:18:19.711Z,98383.34
2022-08-26T01:19:34.095Z,98386.78
2022-08-26T01:21:20.788Z,98389.19
2022-08-26T01:22:33.436Z,98390.52
2022-08-26T01:23:48.047Z,98391.16
2022-08-26T01:24:55.352Z,98393.36
2022-08-26T01:26:15.335Z,98394.75
2022-08-26T01:27:28.723Z,98399.53
2022-08-26T01:28:42.146Z,98400.55
2022-08-26T01:29:50.395Z,98399.17
2022-08-26T01:30:57.642Z,98402.31
2022-08-26T01:32:05.096Z,98404.34
2022-08-26T01:33:14.729Z,98402.77
2022-08-26T01:34:32.446Z,98398.40
2022-08-26T01:35:39.938Z,98403.35
2022-08-26T01:36:51.194Z,98405.02
2022-08-26T01:38:01.840Z,98409.61
2022-08-26T01:39:10.784Z,98413.39
2022-08-26T01:40:21.000Z,98409.45
2022-08-26T01:41:30.994Z,98408.54
2022-08-26T01:42:38.292Z,98409.18
2022-08-26T01:43:48.419Z,98405.05
2022-08-26T01:44:59.972Z,98412.34
2022-08-26T01:46:10.359Z,98412.58
2022-08-26T01:47:19.538Z,98413.95
2022-08-26T01:48:32.467Z,98418.95
2022-08-26T01:49:39.799Z,98420.66
2022-08-26T01:50:48.235Z,98419.55
2022-08-26T01:51:56.365Z,98421.23
2022-08-26T01:53:08.767Z,98417.63
2022-08-26T01:54:18.407Z,98415.45
2022-08-26T01:55:33.419Z,98415.88
2022-08-26T01:56:42.487Z,98415.36
2022-08-26T01:57:51.012Z,98415.52
2022-08-26T01:59:09.378Z,98415.31
2022-08-26T02:00:21.385Z,98417.52
2022-08-26T02:01:30.106Z,98421.20
2022-08-26T02:02:38.670Z,98421.54
2022-08-26T02:04:11.921Z,98421.27
2022-08-26T02:05:22.395Z,98420.48
2022-08-26T02:06:31.092Z,98420.23
2022-08-26T02:07:40.683Z,98419.28
2022-08-26T02:08:52.394Z,98420.48
2022-08-26T02:10:00.849Z,98420.51
2022-08-26T02:11:08.551Z,98419.84
2022-08-26T02:12:17.079Z,98423.42
2022-08-26T02:13:32.932Z,98424.23
2022-08-26T02:14:43.980Z,98425.77
2022-08-26T02:15:53.728Z,98427.10
2022-08-26T02:17:00.941Z,98425.66
2022-08-26T02:18:09.559Z,98426.35
2022-08-26T02:19:29.570Z,98422.58
2022-08-26T02:20:40.799Z,98428.36
2022-08-26T02:21:51.218Z,98428.96
2022-08-26T02:22:59.392Z,98434.23
2022-08-26T02:24:18.903Z,98429.77
2022-08-26T02:25:57.056Z,98431.10
2022-08-26T02:27:05.283Z,98431.59
2022-08-26T02:28:15.093Z,98435.77
2022-08-26T02:29:36.400Z,98435.77
2022-08-26T02:30:45.375Z,98437.63
2022-08-26T02:31:54.125Z,98437.42
2022-08-26T02:33:08.318Z,98441.34
2022-08-26T02:34:18.049Z,98440.70
2022-08-26T02:35:27.661Z,98444.17
2022-08-26T02:36:36.501Z,98446.15
2022-08-26T02:37:45.358Z,98443.52
2022-08-26T02:38:53.931Z,98444.05
2022-08-26T02:40:04.073Z,98442.21
2022-08-26T02:41:13.003Z,98440.86
2022-08-26T02:42:24.131Z,98439.94
2022-08-26T02:43:33.875Z,98439.84
2022-08-26T02:44:42.462Z,98442.01
2022-08-26T02:45:52.608Z,98442.77
2022-08-26T02:47:03.799Z,98442.82
2022-08-26T02:48:18.854Z,98444.09
2022-08-26T02:49:27.755Z,98447.05
2022-08-26T02:50:37.177Z,98450.63
2022-08-26T02:51:45.866Z,98447.15
2022-08-26T02:52:57.550Z,98452.02
2022-08-26T02:54:06.617Z,98451.91
2022-08-26T02:55:17.311Z,98453.56
2022-08-26T02:56:27.327Z,98455.71
2022-08-26T02:57:39.367Z,98460.48
2022-08-26T02:58:48.594Z,98465.61
2022-08-26T02:59:56.508Z,98468.73
2022-08-26T03:01:05.853Z,98474.59
2022-08-26T03:02:15.096Z,98472.98
2022-08-26T03:03:24.422Z,98474.46
2022-08-26T03:04:35.858Z,98476.48
2022-08-26T03:05:44.328Z,98480.60
2022-08-26T03:06:55.290Z,98484.77
2022-08-26T03:08:04.202Z,98486.44
2022-08-26T03:09:18.847Z,98489.23
2022-08-26T03:10:29.158Z,98490.56
2022-08-26T03:11:38.679Z,98494.76
2022-08-26T03:12:48.130Z,98499.31
2022-08-26T03:13:55.213Z,98499.84
2022-08-26T03:15:02.671Z,98497.80
2022-08-26T03:16:27.212Z,98500.73
2022-08-26T03:17:41.998Z,98499.92
2022-08-26T03:18:53.029Z,98503.15
2022-08-26T03:20:03.796Z,98500.27
2022-08-26T03:21:13.148Z,98496.61
2022-08-26T03:22:23.714Z,98498.52
2022-08-26T03:23:33.793Z,98497.88
2022-08-26T03:24:46.132Z,98499.25
2022-08-26T03:25:58.729Z,98497.41
2022-08-26T03:27:08.887Z,98502.98
2022-08-26T03:28:16.434Z,98506.71
2022-08-26T03:29:49.538Z,98505.66
2022-08-26T03:30:59.094Z,98512.79
2022-08-26T03:32:07.117Z,98513.84
2022-08-26T03:33:14.795Z,98517.98
2022-08-26T03:34:24.297Z,98520.17
2022-08-26T03:35:45.043Z,98520.44
2022-08-26T03:36:54.316Z,98521.02
2022-08-26T03:38:04.774Z,98525.92
2022-08-26T03:39:14.466Z,98524.09
2022-08-26T03:40:22.367Z,98529.27
2022-08-26T03:41:34.189Z,98534.95
2022-08-26T03:42:45.455Z,98536.02
2022-08-26T03:43:53.451Z,98538.73
2022-08-26T03:45:02.541Z,98540.65
2022-08-26T03:46:13.321Z,98539.48
2022-08-26T03:47:24.266Z,98543.65
2022-08-26T03:48:32.176Z,98543.78
2022-08-26T03:49:40.599Z,98546.82
2022-08-26T03:50:50.984Z,98546.23
2022-08-26T03:52:01.388Z,98547.90
2022-08-26T03:53:13.114Z,98549.52
2022-08-26T03:54:22.237Z,98552.27
2022-08-26T03:55:33.828Z,98552.19
2022-08-26T03:56:42.445Z,98553.03
2022-08-26T03:57:57.693Z,98557.77
2022-08-26T03:59:07.810Z,98561.30
2022-08-26T04:00:18.487Z,98566.98
2022-08-26T04:01:29.472Z,98572.37
2022-08-26T04:02:39.538Z,98573.94
2022-08-26T04:04:00.869Z,98575.45
2022-08-26T04:05:10.982Z,98577.17
2022-08-26T04:06:20.541Z,98579.45
2022-08-26T04:07:32.172Z,98579.87
2022-08-26T04:08:41.511Z,98580.98
2022-08-26T04:09:50.615Z,98580.18
2022-08-26T04:10:58.947Z,98576.30
2022-08-26T04:12:07.136Z,98578.77
2022-08-26T04:13:17.258Z,98580.17
2022-08-26T04:14:28.847Z,98579.42
2022-08-26T04:15:38.314Z,98579.65
2022-08-26T04:16:46.607Z,98582.85
2022-08-26T04:17:55.873Z,98587.86
2022-08-26T04:19:05.485Z,98588.86
2022-08-26T04:20:16.207Z,98589.27
2022-08-26T04:21:28.148Z,98592.08
2022-08-26T04:22:40.985Z,98593.84
2022-08-26T04:23:49.091Z,98595.99
2022-08-26T04:24:58.981Z,98595.13
2022-08-26T04:26:09.290Z,98597.73
2022-08-26T04:27:19.906Z,98599.65
2022-08-26T04:28:28.218Z,98602.63
2022-08-26T04:29:36.891Z,98600.77
2022-08-26T04:30:47.255Z,98602.14
2022-08-26T04:31:56.691Z,98600.34
2022-08-26T04:33:13.190Z,98601.28
2022-08-26T04:34:28.346Z,98598.23
2022-08-26T04:35:39.130Z,98598.36
2022-08-26T04:36:52.932Z,98603.09
2022-08-26T04:38:02.727Z,98601.80
2022-08-26T04:39:15.364Z,98603.73
2022-08-26T04:40:26.514Z,98604.95
2022-08-26T04:41:39.175Z,98604.30
2022-08-26T04:42:49.729Z,98610.28
2022-08-26T04:44:04.036Z,98608.92
2022-08-26T04:45:13.327Z,98613.03
2022-08-26T04:46:25.896Z,98611.23
2022-08-26T04:47:34.676Z,98611.07
2022-08-26T04:48:43.875Z,98609.54
2022-08-26T04:49:56.615Z,98606.70
2022-08-26T04:51:06.893Z,98607.20
2022-08-26T04:52:18.211Z,98607.43
2022-08-26T04:53:29.258Z,98608.83
2022-08-26T04:54:42.038Z,98610.42
2022-08-26T04:55:52.442Z,98613.02
2022-08-26T04:57:04.009Z,98614.84
2022-08-26T04:58:13.169Z,98612.82
2022-08-26T04:59:24.561Z,98615.52
2022-08-26T05:00:35.553Z,98619.46
2022-08-26T05:01:46.006Z,98622.55
2022-08-26T05:02:53.847Z,98628.27
2022-08-26T05:04:01.965Z,98628.83
2022-08-26T05:05:14.069Z,98630.20
2022-08-26T05:06:22.542Z,98630.81
2022-08-26T05:07:33.258Z,98631.96
2022-08-26T05:08:42.328Z,98632.89
2022-08-26T05:09:51.488Z,98628.74
2022-08-26T05:11:01.683Z,98629.85
2022-08-26T05:12:11.759Z,98630.52
2022-08-26T05:13:22.223Z,98632.50
2022-08-26T05:14:34.106Z,98633.73
2022-08-26T05:15:44.227Z,98632.75
2022-08-26T05:16:53.877Z,98633.02
2022-08-26T05:18:01.387Z,98634.05
2022-08-26T05:19:09.420Z,98636.48
2022-08-26T05:20:25.584Z,98636.38
2022-08-26T05:21:37.277Z,98633.56
2022-08-26T05:22:46.908Z,98637.48
2022-08-26T05:23:58.976Z,98637.59
2022-08-26T05:25:07.249Z,98636.88
2022-08-26T05:26:16.698Z,98637.31
2022-08-26T05:27:25.588Z,98635.84
2022-08-26T05:28:34.407Z,98637.20
2022-08-26T05:29:44.868Z,98636.52
2022-08-26T05:30:52.947Z,98636.89
2022-08-26T05:32:02.528Z,98635.73
2022-08-26T05:33:11.796Z,98637.88
2022-08-26T05:34:22.505Z,98640.42
2022-08-26T05:35:36.428Z,98640.16
2022-08-26T05:36:44.927Z,98641.52
2022-08-26T05:37:55.133Z,98642.46
2022-08-26T05:39:02.635Z,98642.52
2022-08-26T05:40:11.165Z,98642.41
2022-08-26T05:41:34.432Z,98641.76
2022-08-26T05:42:49.357Z,98639.04
2022-08-26T05:44:01.577Z,98641.98
2022-08-26T05:45:11.336Z,98641.80
2022-08-26T05:46:19.049Z,98642.20
2022-08-26T05:47:28.450Z,98641.44
2022-08-26T05:48:38.832Z,98642.84
2022-08-26T05:49:53.323Z,98640.22
2022-08-26T05:51:05.068Z,98641.41
2022-08-26T05:52:14.541Z,98639.23
2022-08-26T05:53:23.979Z,98637.96
2022-08-26T05:54:36.170Z,98638.18
2022-08-26T05:55:48.525Z,98641.25
2022-08-26T05:56:56.470Z,98641.90
2022-08-26T05:58:04.221Z,98641.30
2022-08-26T05:59:15.288Z,98639.55
2022-08-26T06:00:26.014Z,98641.84
2022-08-26T06:01:36.454Z,98642.55
2022-08-26T06:02:48.369Z,98641.55
2022-08-26T06:04:01.758Z,98641.45
2022-08-26T06:05:12.963Z,98643.52
2022-08-26T06:06:29.327Z,98641.63
2022-08-26T06:07:59.266Z,98637.84
2022-08-26T06:09:09.593Z,98639.63
2022-08-26T06:10:32.229Z,98640.71
2022-08-26T06:11:44.960Z,98641.36
2022-08-26T06:12:53.426Z,98646.05
2022-08-26T06:14:04.224Z,98643.77
2022-08-26T06:15:13.959Z,98644.70
2022-08-26T06:16:26.235Z,98645.13
2022-08-26T06:17:41.315Z,98650.31
2022-08-26T06:18:52.277Z,98653.55
2022-08-26T06:20:02.696Z,98647.36
2022-08-26T06:21:19.944Z,98649.81
2022-08-26T06:22:51.341Z,98646.91
2022-08-26T06:24:35.421Z,98647.33
2022-08-26T06:25:46.667Z,98643.13
2022-08-26T06:26:56.698Z,98644.23
2022-08-26T06:28:07.921Z,98644.31
2022-08-26T06:29:24.230Z,98647.36
2022-08-26T06:30:35.564Z,98646.33
2022-08-26T06:31:47.562Z,98651.77
2022-08-26T06:32:55.258Z,98648.68
2022-08-26T06:34:04.390Z,98643.66
2022-08-26T06:35:15.048Z,98645.35
2022-08-26T06:36:24.109Z,98643.74
2022-08-26T06:37:32.915Z,98644.98
2022-08-26T06:38:43.364Z,98640.66
2022-08-26T06:39:51.419Z,98641.36
2022-08-26T06:41:00.439Z,98642.00
2022-08-26T06:42:09.261Z,98643.42
2022-08-26T06:43:18.903Z,98641.61
2022-08-26T06:44:27.387Z,98640.55
2022-08-26T06:45:36.226Z,98641.56
2022-08-26T06:46:44.647Z,98642.20
2022-08-26T06:47:52.071Z,98640.05
2022-08-26T06:49:02.516Z,98636.90
2022-08-26T06:50:11.637Z,98637.54
2022-08-26T06:51:22.307Z,98636.98
2022-08-26T06:52:31.030Z,98636.33
2022-08-26T06:53:41.147Z,98635.55
2022-08-26T06:54:48.751Z,98635.55
2022-08-26T06:55:59.344Z,98635.88
2022-08-26T06:57:07.116Z,98633.41
2022-08-26T06:58:16.146Z,98630.40
2022-08-26T06:59:23.795Z,98627.51
2022-08-26T07:00:32.955Z,98626.89
2022-08-26T07:01:45.881Z,98621.87
2022-08-26T07:02:53.307Z,98622.45
2022-08-26T07:04:01.803Z,98619.16
2022-08-26T07:05:10.403Z,98613.64
2022-08-26T07:06:20.247Z,98616.41
2022-08-26T07:07:27.637Z,98618.20
2022-08-26T07:08:35.555Z,98621.14
2022-08-26T07:09:45.157Z,98626.03
2022-08-26T07:10:55.964Z,98622.77
2022-08-26T07:12:05.748Z,98623.04
2022-08-26T07:13:15.593Z,98622.75
2022-08-26T07:14:24.068Z,98623.88
2022-08-26T07:15:35.504Z,98622.52
2022-08-26T07:16:46.322Z,98622.66
2022-08-26T07:17:54.317Z,98621.84
2022-08-26T07:19:10.755Z,98621.65
2022-08-26T07:20:20.170Z,98624.20
2022-08-26T07:21:29.911Z,98625.29
2022-08-26T07:22:41.014Z,98625.88
2022-08-26T07:23:50.969Z,98630.23
2022-08-26T07:24:59.727Z,98633.77
2022-08-26T07:26:13.234Z,98631.30
2022-08-26T07:27:20.009Z,98629.66
2022-08-26T07:28:31.301Z,98630.19
2022-08-26T07:29:39.228Z,98630.40
2022-08-26T07:30:46.791Z,98631.42
2022-08-26T07:31:56.329Z,98632.28
2022-08-26T07:33:04.838Z,98629.92
2022-08-26T07:34:15.391Z,98634.64
2022-08-26T07:35:25.376Z,98635.09
2022-08-26T07:36:33.177Z,98638.56
2022-08-26T07:37:43.550Z,98636.75
2022-08-26T07:38:53.184Z,98637.14
2022-08-26T07:40:01.882Z,98635.05
2022-08-26T07:41:10.678Z,98631.64
2022-08-26T07:42:19.731Z,98630.69
2022-08-26T07:43:27.092Z,98631.15
2022-08-26T07:44:39.440Z,98631.15
2022-08-26T07:45:49.452Z,98633.63
2022-08-26T07:46:57.481Z,98629.53
2022-08-26T07:48:05.965Z,98631.54
2022-08-26T07:49:14.749Z,98631.21
2022-08-26T07:50:49.200Z,98634.27
2022-08-26T07:51:54.795Z,98634.02
2022-08-26T07:53:03.746Z,98633.27
2022-08-26T07:54:11.589Z,98633.70
2022-08-26T07:55:21.625Z,98635.48
2022-08-26T07:56:30.763Z,98634.15
2022-08-26T07:57:39.982Z,98635.80
2022-08-26T07:58:51.280Z,98639.23
2022-08-26T08:00:02.235Z,98640.39
2022-08-26T08:01:19.690Z,98641.11
2022-08-26T08:02:27.646Z,98642.44
2022-08-26T08:03:37.898Z,98642.64
2022-08-26T08:04:45.412Z,98642.14
2022-08-26T08:05:55.012Z,98636.23
2022-08-26T08:07:04.899Z,98637.35
2022-08-26T08:08:27.890Z,98640.77
2022-08-26T08:09:42.387Z,98638.17
2022-08-26T08:10:49.598Z,98639.02
2022-08-26T08:11:56.733Z,98639.52
2022-08-26T08:13:05.327Z,98635.74
2022-08-26T08:14:12.563Z,98639.94
2022-08-26T08:15:21.900Z,98636.83
2022-08-26T08:16:32.402Z,98634.59
2022-08-26T08:17:47.454Z,98630.50
2022-08-26T08:19:00.337Z,98632.30
2022-08-26T08:20:08.727Z,98630.07
2022-08-26T08:21:21.723Z,98630.15
2022-08-26T08:22:33.740Z,98629.28
2022-08-26T08:23:41.106Z,98629.62
2022-08-26T08:24:53.066Z,98629.88
2022-08-26T08:26:09.184Z,98627.45
2022-08-26T08:27:17.217Z,98626.77
2022-08-26T08:28:28.254Z,98626.61
2022-08-26T08:29:38.566Z,98627.14
2022-08-26T08:30:46.012Z,98623.88
2022-08-26T08:31:57.033Z,98619.19
2022-08-26T08:33:06.909Z,98617.00
2022-08-26T08:34:18.300Z,98613.99
2022-08-26T08:35:28.591Z,98610.45
2022-08-26T08:36:37.790Z,98608.06
2022-08-26T08:37:46.851Z,98607.66
2022-08-26T08:38:54.543Z,98608.27
2022-08-26T08:40:02.507Z,98608.81
2022-08-26T08:41:20.932Z,98610.84
2022-08-26T08:42:45.974Z,98611.79
2022-08-26T08:43:54.898Z,98609.63
2022-08-26T08:45:09.612Z,98607.75
2022-08-26T08:46:18.505Z,98607.91
2022-08-26T08:47:40.313Z,98607.58
2022-08-26T08:48:58.377Z,98607.73
2022-08-26T08:50:27.009Z,98607.56
2022-08-26T08:51:42.517Z,98604.52
2022-08-26T08:53:35.769Z,98602.38
2022-08-26T08:54:44.455Z,98601.45
2022-08-26T08:56:04.425Z,98601.56
2022-08-26T08:57:30.048Z,98603.02
2022-08-26T08:58:46.729Z,98605.89
2022-08-26T09:00:04.634Z,98604.63
2022-08-26T09:01:28.611Z,98603.98
2022-08-26T09:02:53.038Z,98605.84
2022-08-26T09:04:25.523Z,98604.00
2022-08-26T09:05:38.906Z,98606.33
2022-08-26T09:06:46.893Z,98604.91
2022-08-26T09:08:06.739Z,98603.70
2022-08-26T09:09:24.865Z,98603.48
2022-08-26T09:10:34.076Z,98602.55
2022-08-26T09:11:45.578Z,98605.59
2022-08-26T09:12:54.798Z,98604.77
2022-08-26T09:14:04.136Z,98610.00
2022-08-26T09:15:20.823Z,98609.34
2022-08-26T09:16:36.321Z,98609.98
2022-08-26T09:18:23.572Z,98612.09
2022-08-26T09:19:38.326Z,98613.41
2022-08-26T09:20:51.248Z,98610.41
2022-08-26T09:21:59.651Z,98615.69
2022-08-26T09:23:07.014Z,98616.58
2022-08-26T09:24:19.398Z,98619.11
2022-08-26T09:25:30.461Z,98621.02
2022-08-26T09:26:48.996Z,98617.74
2022-08-26T09:27:57.140Z,98619.65
2022-08-26T09:29:12.535Z,98619.58
2022-08-26T09:30:30.654Z,98619.28
2022-08-26T09:31:39.252Z,98617.95
2022-08-26T09:33:03.788Z,98616.30
2022-08-26T09:34:26.056Z,98616.63
2022-08-26T09:35:41.413Z,98617.52
2022-08-26T09:36:58.846Z,98621.46
2022-08-26T09:38:28.961Z,98620.71
2022-08-26T09:39:39.439Z,98622.69
2022-08-26T09:40:59.284Z,98622.59
2022-08-26T09:42:35.003Z,98619.41
2022-08-26T09:43:43.694Z,98619.36
2022-08-26T09:45:07.800Z,98619.83
2022-08-26T09:46:22.133Z,98620.34
2022-08-26T09:47:48.245Z,98616.07
2022-08-26T09:48:56.249Z,98620.89
2022-08-26T09:50:21.409Z,98620.66
2022-08-26T09:51:36.459Z,98620.15
2022-08-26T09:52:45.019Z,98618.67
2022-08-26T09:54:02.140Z,98619.27
2022-08-26T09:55:13.185Z,98620.58
2022-08-26T09:56:28.225Z,98620.78
2022-08-26T09:57:36.595Z,98622.20
2022-08-26T09:58:48.298Z,98621.13
2022-08-26T09:59:56.689Z,98623.74
2022-08-26T10:01:04.625Z,98622.22
2022-08-26T10:02:34.486Z,98621.84
2022-08-26T10:03:41.906Z,98622.33
2022-08-26T10:04:55.483Z,98622.96
2022-08-26T10:06:26.033Z,98620.64
2022-08-26T10:07:51.134Z,98620.99
2022-08-26T10:09:00.377Z,98620.49
2022-08-26T10:10:38.698Z,98623.80
2022-08-26T10:12:13.172Z,98623.64
2022-08-26T10:13:44.587Z,98622.89
2022-08-26T10:14:55.773Z,98620.82
2022-08-26T10:16:03.293Z,98619.90
2022-08-26T10:17:30.776Z,98621.66
2022-08-26T10:19:02.899Z,98621.55
2022-08-26T10:20:25.098Z,98622.20
2022-08-26T10:22:03.858Z,98621.98
2022-08-26T10:23:28.396Z,98616.45
2022-08-26T10:24:54.511Z,98618.44
2022-08-26T10:26:14.064Z,98617.24
2022-08-26T10:28:36.398Z,98616.26
2022-08-26T10:29:49.208Z,98618.88
2022-08-26T10:31:27.699Z,98613.27
2022-08-26T10:32:41.693Z,98615.95
2022-08-26T10:33:58.046Z,98616.13
2022-08-26T10:35:11.127Z,98615.00
2022-08-26T10:37:05.111Z,98613.20
2022-08-26T10:38:16.078Z,98612.33
2022-08-26T10:39:38.133Z,98612.80
2022-08-26T10:41:19.188Z,98613.33
2022-08-26T10:42:52.358Z,98609.35
2022-08-26T10:44:08.210Z,98611.44
2022-08-26T10:45:23.639Z,98611.05
2022-08-26T10:46:40.991Z,98610.86
2022-08-26T10:47:51.039Z,98610.36
2022-08-26T10:49:28.451Z,98604.96
2022-08-26T10:50:43.333Z,98607.99
2022-08-26T10:51:58.539Z,98606.45
2022-08-26T10:53:05.899Z,98604.08
2022-08-26T10:54:41.126Z,98603.93
2022-08-26T10:56:15.670Z,98606.13
2022-08-26T10:57:52.680Z,98603.83
2022-08-26T10:59:10.238Z,98609.91
2022-08-26T11:00:41.671Z,98609.36
2022-08-26T11:02:03.969Z,98609.96
2022-08-26T11:03:22.657Z,98608.23
2022-08-26T11:04:53.213Z,98607.39
2022-08-26T11:06:23.007Z,98601.21
2022-08-26T11:07:39.393Z,98600.78
2022-08-26T11:09:02.960Z,98600.45
2022-08-26T11:10:24.799Z,98600.41
2022-08-26T11:11:49.147Z,98596.26
2022-08-26T11:13:12.329Z,98598.83
2022-08-26T11:14:28.501Z,98600.63
2022-08-26T11:15:42.580Z,98601.73
2022-08-26T11:16:54.226Z,98601.91
2022-08-26T11:18:13.357Z,98605.84
2022-08-26T11:20:00.092Z,98601.67
2022-08-26T11:21:49.393Z,98598.26
2022-08-26T11:23:38.773Z,98597.73
2022-08-26T11:25:00.376Z,98595.88
2022-08-26T11:26:11.557Z,98593.20
2022-08-26T11:27:43.708Z,98595.58
2022-08-26T11:28:52.333Z,98596.25
2022-08-26T11:30:18.373Z,98593.65
2022-08-26T11:31:28.780Z,98591.67
2022-08-26T11:32:42.571Z,98591.90
2022-08-26T11:34:00.500Z,98588.38
2022-08-26T11:35:13.011Z,98589.33
2022-08-26T11:36:40.115Z,98587.27
2022-08-26T11:37:47.349Z,98582.81
2022-08-26T11:38:54.658Z,98579.08
2022-08-26T11:40:02.848Z,98580.84
2022-08-26T11:41:20.352Z,98582.49
2022-08-26T11:42:53.377Z,98582.58
2022-08-26T11:44:03.542Z,98579.02
2022-08-26T11:45:34.455Z,98579.66
2022-08-26T11:47:15.967Z,98578.55
2022-08-26T11:48:25.717Z,98578.16
2022-08-26T11:49:36.448Z,98577.52
2022-08-26T11:51:25.308Z,98578.98
2022-08-26T11:52:33.327Z,98574.48
2022-08-26T11:53:44.262Z,98576.42
2022-08-26T11:55:12.295Z,98577.16
2022-08-26T11:56:36.159Z,98576.98
2022-08-26T11:57:47.030Z,98579.31
2022-08-26T11:58:56.792Z,98574.98
2022-08-26T12:00:05.165Z,98576.10
2022-08-26T12:01:27.387Z,98578.98
2022-08-26T12:02:41.257Z,98575.91
2022-08-26T12:03:55.579Z,98575.53
2022-08-26T12:05:09.151Z,98572.48
2022-08-26T12:06:19.148Z,98570.45
2022-08-26T12:07:35.108Z,98572.74
2022-08-26T12:08:46.709Z,98573.95
2022-08-26T12:10:08.396Z,98574.63
2022-08-26T12:11:27.276Z,98573.73
2022-08-26T12:12:44.222Z,98576.19
2022-08-26T12:14:17.897Z,98576.56
2022-08-26T12:15:31.088Z,98575.52
2022-08-26T12:16:41.030Z,98577.39
2022-08-26T12:17:54.357Z,98577.80
2022-08-26T12:19:03.208Z,98576.55
2022-08-26T12:20:48.269Z,98576.55
2022-08-26T12:22:02.853Z,98574.59
2022-08-26T12:23:10.308Z,98575.39
2022-08-26T12:24:20.834Z,98572.19
2022-08-26T12:25:30.673Z,98571.70
2022-08-26T12:26:52.747Z,98572.45
2022-08-26T12:28:05.206Z,98574.99
2022-08-26T12:29:28.569Z,98575.89
2022-08-26T12:30:37.449Z,98577.15
2022-08-26T12:31:45.905Z,98577.80
2022-08-26T12:33:22.032Z,98577.58
2022-08-26T12:34:34.566Z,98579.08
2022-08-26T12:35:42.341Z,98577.83
2022-08-26T12:38:13.880Z,98577.41
2022-08-26T12:39:40.534Z,98578.16
2022-08-26T12:40:51.745Z,98578.36
2022-08-26T12:42:00.970Z,98576.04
2022-08-26T12:43:09.562Z,98579.86
2022-08-26T12:44:57.245Z,98575.77
2022-08-26T12:46:07.470Z,98576.36
2022-08-26T12:47:20.500Z,98572.52
2022-08-26T12:48:39.610Z,98578.12
2022-08-26T12:49:46.737Z,98575.41
2022-08-26T12:50:54.104Z,98580.17
2022-08-26T12:52:01.208Z,98579.30
2022-08-26T12:53:29.194Z,98580.27
2022-08-26T12:54:58.206Z,98579.60
2022-08-26T12:56:29.799Z,98581.64
2022-08-26T12:57:39.905Z,98577.71
2022-08-26T13:00:38.832Z,98579.28
2022-08-26T13:01:46.138Z,98579.36
2022-08-26T13:02:54.624Z,98580.84
2022-08-26T13:04:02.188Z,98579.88
2022-08-26T13:05:11.009Z,98582.00
2022-08-26T13:06:25.036Z,98585.20
2022-08-26T13:07:34.469Z,98586.13
2022-08-26T13:08:48.859Z,98586.94
2022-08-26T13:09:59.388Z,98586.59
2022-08-26T13:11:22.400Z,98587.12
2022-08-26T13:12:34.928Z,98590.29
2022-08-26T13:13:43.529Z,98591.88
2022-08-26T13:14:52.522Z,98592.96
2022-08-26T13:16:01.261Z,98591.08
2022-08-26T13:17:08.933Z,98593.31
2022-08-26T13:18:20.552Z,98592.95
2022-08-26T13:19:29.417Z,98595.35
2022-08-26T13:20:45.155Z,98595.16
2022-08-26T13:21:55.452Z,98598.41
2022-08-26T13:23:06.107Z,98598.20
2022-08-26T13:24:14.985Z,98600.63
2022-08-26T13:25:23.968Z,98597.61
2022-08-26T13:26:32.277Z,98598.31
2022-08-26T13:27:39.468Z,98602.33
2022-08-26T13:28:48.619Z,98608.08
2022-08-26T13:30:09.731Z,98606.06
2022-08-26T13:31:21.808Z,98608.84
2022-08-26T13:32:35.087Z,98609.46
2022-08-26T13:33:46.812Z,98610.95
2022-08-26T13:34:56.581Z,98606.80
2022-08-26T13:36:03.737Z,98610.97
2022-08-26T13:37:11.156Z,98612.20
2022-08-26T13:38:33.737Z,98612.81
2022-08-26T13:39:43.629Z,98611.58
2022-08-26T13:40:50.804Z,98613.84
2022-08-26T13:41:58.272Z,98612.17
2022-08-26T13:43:04.852Z,98615.38
2022-08-26T13:44:14.050Z,98613.73
2022-08-26T13:45:22.914Z,98615.15
2022-08-26T13:46:30.953Z,98614.33
2022-08-26T13:47:38.399Z,98616.96
2022-08-26T13:48:46.002Z,98614.36
2022-08-26T13:49:53.292Z,98616.04
2022-08-26T13:51:01.634Z,98614.95
2022-08-26T13:52:10.035Z,98618.11
2022-08-26T13:53:17.983Z,98613.69
2022-08-26T13:54:26.288Z,98614.86
2022-08-26T13:55:35.389Z,98611.42
2022-08-26T13:56:43.593Z,98610.76
2022-08-26T13:57:51.107Z,98608.49
2022-08-26T13:58:59.418Z,98612.20
2022-08-26T14:00:10.934Z,98612.14
2022-08-26T14:01:18.770Z,98617.10
2022-08-26T14:02:29.249Z,98618.15
2022-08-26T14:03:36.372Z,98619.70
2022-08-26T14:04:43.946Z,98620.02
2022-08-26T14:05:52.517Z,98619.89
2022-08-26T14:06:59.688Z,98619.41
2022-08-26T14:08:07.021Z,98622.09
2022-08-26T14:09:15.355Z,98625.66
2022-08-26T14:10:24.065Z,98627.80
2022-08-26T14:11:41.195Z,98626.08
2022-08-26T14:12:58.796Z,98630.55
2022-08-26T14:14:08.836Z,98629.55
2022-08-26T14:15:17.500Z,98627.80
2022-08-26T14:16:35.920Z,98629.92
2022-08-26T14:17:45.033Z,98627.63
2022-08-26T14:18:53.823Z,98625.11
2022-08-26T14:20:01.857Z,98624.98
2022-08-26T14:21:11.699Z,98626.67
2022-08-26T14:22:21.018Z,98630.13
2022-08-26T14:23:35.159Z,98630.85
2022-08-26T14:24:51.192Z,98631.52